Time;durP1;ratioP1;P1;durP2;ratioP2;P2;SDS_P1;SDS_P2;PMS_P1;PMS_P2;Temp;Humidity;BMP_temperature;BMP_pressure;BME280_temperature;BME280_humidity;BME280_pressure;Samples;Min_cycle;Max_cycle;Signal;HPM_P1;HPM_P2
2021/09/01 00:01:13;;;;;;;6.05;4.35;;;14.00;99.90;;;;;;5064824;28;20261;-72
2021/09/01 00:03:39;;;;;;;7.65;3.35;;;14.10;99.90;;;;;;5065547;28;20641;-69
2021/09/01 00:06:05;;;;;;;5.93;3.92;;;14.10;99.90;;;;;;5065071;28;20850;-68
2021/09/01 00:08:31;;;;;;;4.53;3.17;;;14.10;99.90;;;;;;5047538;28;20672;-68
2021/09/01 00:10:57;;;;;;;5.72;3.35;;;14.20;99.90;;;;;;5064871;28;20181;-68
2021/09/01 00:13:23;;;;;;;5.93;4.28;;;14.30;99.90;;;;;;5065012;28;20239;-69
2021/09/01 00:15:49;;;;;;;9.13;4.28;;;14.40;99.90;;;;;;5064232;28;20200;-69
2021/09/01 00:18:15;;;;;;;6.68;3.90;;;14.40;99.90;;;;;;5065215;28;20268;-69
2021/09/01 00:20:40;;;;;;;6.03;4.78;;;14.50;99.90;;;;;;5065062;28;20181;-69
2021/09/01 00:23:06;;;;;;;10.75;4.70;;;14.50;99.90;;;;;;5047395;28;20200;-70
2021/09/01 00:25:32;;;;;;;9.20;4.53;;;14.60;99.90;;;;;;5064308;28;20197;-68
2021/09/01 00:27:57;;;;;;;10.23;4.50;;;14.70;99.90;;;;;;5046361;28;20830;-68
2021/09/01 00:30:23;;;;;;;4.75;3.35;;;14.60;99.90;;;;;;5065348;28;20636;-68
2021/09/01 00:32:48;;;;;;;6.20;4.38;;;14.70;99.90;;;;;;5064450;28;20173;-70
2021/09/01 00:35:14;;;;;;;6.93;3.88;;;14.70;99.90;;;;;;5063947;28;20196;-68
2021/09/01 00:37:40;;;;;;;8.52;5.18;;;14.70;99.90;;;;;;5064476;28;20653;-69
2021/09/01 00:40:06;;;;;;;10.50;5.15;;;14.70;99.90;;;;;;5064652;28;20186;-70
2021/09/01 00:42:35;;;;;;;12.15;4.53;;;14.80;99.90;;;;;;5064737;28;20651;-67
2021/09/01 00:45:02;;;;;;;7.65;4.70;;;14.70;99.90;;;;;;5063752;28;20233;-70
2021/09/01 00:47:28;;;;;;;11.07;5.00;;;14.70;99.90;;;;;;5064315;28;20201;-69
2021/09/01 00:49:54;;;;;;;6.68;3.95;;;14.80;99.90;;;;;;5064654;28;20192;-68
2021/09/01 00:52:20;;;;;;;8.48;4.63;;;14.80;99.90;;;;;;5064961;28;20260;-70
2021/09/01 00:54:47;;;;;;;6.63;4.47;;;14.80;99.90;;;;;;5063988;28;20255;-69
2021/09/01 00:57:14;;;;;;;8.38;4.53;;;14.80;99.90;;;;;;5063803;28;20193;-69
2021/09/01 00:59:42;;;;;;;8.38;4.55;;;14.80;99.90;;;;;;5064716;28;20533;-69
2021/09/01 01:02:08;;;;;;;11.95;4.97;;;14.80;99.90;;;;;;5064247;28;20169;-69
2021/09/01 01:04:35;;;;;;;9.23;5.53;;;14.70;99.90;;;;;;5062111;28;20671;-69
2021/09/01 01:07:08;;;;;;;10.50;4.50;;;14.70;99.90;;;;;;5063717;28;20208;-69
2021/09/01 01:09:35;;;;;;;6.07;4.30;;;14.80;99.90;;;;;;5064782;28;20173;-69
2021/09/01 01:12:05;;;;;;;6.15;4.43;;;14.80;99.90;;;;;;5063748;28;20539;-69
2021/09/01 01:14:53;;;;;;;11.60;5.95;;;14.80;99.90;;;;;;5064049;28;20652;-69
2021/09/01 01:17:20;;;;;;;10.05;4.93;;;14.80;99.90;;;;;;5063144;28;20189;-69
2021/09/01 01:19:51;;;;;;;9.27;5.55;;;14.80;99.90;;;;;;5064406;28;20543;-68
2021/09/01 01:22:24;;;;;;;9.38;5.13;;;14.80;99.90;;;;;;5064144;28;20174;-67
2021/09/01 01:25:05;;;;;;;8.95;5.22;;;14.80;99.90;;;;;;5063255;28;20204;-69
2021/09/01 01:27:35;;;;;;;10.48;5.32;;;14.80;99.90;;;;;;5045720;28;20707;-69
2021/09/01 01:30:03;;;;;;;10.75;4.95;;;14.80;99.90;;;;;;5064048;28;20174;-68
2021/09/01 01:32:29;;;;;;;9.77;4.90;;;14.80;99.90;;;;;;5064581;28;20750;-68
2021/09/01 01:34:55;;;;;;;13.55;5.68;;;14.80;99.90;;;;;;5063162;28;20207;-69
2021/09/01 01:37:20;;;;;;;8.43;5.22;;;14.80;99.90;;;;;;5064080;28;20178;-68
2021/09/01 01:39:46;;;;;;;9.75;5.10;;;14.70;99.90;;;;;;5064272;28;20564;-69
2021/09/01 01:42:12;;;;;;;13.48;5.63;;;14.80;99.90;;;;;;5063556;28;20212;-68
2021/09/01 01:44:37;;;;;;;8.75;6.15;;;14.80;99.90;;;;;;5063300;28;20227;-69
2021/09/01 01:47:03;;;;;;;11.07;5.72;;;14.80;99.90;;;;;;5045500;28;20216;-68
2021/09/01 01:49:29;;;;;;;8.05;5.45;;;14.70;99.90;;;;;;5064151;28;20205;-70
2021/09/01 01:51:55;;;;;;;8.82;5.15;;;14.80;99.90;;;;;;5063771;28;20220;-69
2021/09/01 01:54:21;;;;;;;8.77;5.25;;;14.80;99.90;;;;;;5045089;28;20244;-69
2021/09/01 01:56:46;;;;;;;9.50;5.75;;;14.80;99.90;;;;;;5064286;28;20201;-67
2021/09/01 01:59:12;;;;;;;10.23;5.47;;;14.70;99.90;;;;;;5063867;28;20186;-69
2021/09/01 02:01:38;;;;;;;10.75;6.13;;;14.70;99.90;;;;;;5063902;28;20264;-68
2021/09/01 02:04:03;;;;;;;11.73;5.72;;;14.70;99.90;;;;;;5062636;28;20188;-69
2021/09/01 02:06:29;;;;;;;7.25;4.85;;;14.70;99.90;;;;;;5063818;28;20178;-69
2021/09/01 02:08:55;;;;;;;13.57;5.80;;;14.70;99.90;;;;;;5063717;28;20209;-68
2021/09/01 02:11:20;;;;;;;8.18;5.40;;;14.70;99.90;;;;;;5063563;28;20181;-70
2021/09/01 02:13:46;;;;;;;8.88;5.15;;;14.70;99.90;;;;;;5062786;28;20174;-69
2021/09/01 02:16:12;;;;;;;10.35;5.55;;;14.60;99.90;;;;;;5063614;28;20228;-68
2021/09/01 02:18:37;;;;;;;11.77;5.70;;;14.60;99.90;;;;;;5063835;28;20651;-70
2021/09/01 02:21:03;;;;;;;8.18;5.68;;;14.60;99.90;;;;;;5063068;28;20193;-70
2021/09/01 02:23:28;;;;;;;9.02;5.55;;;14.70;99.90;;;;;;5063573;28;20272;-68
2021/09/01 02:25:54;;;;;;;7.70;5.00;;;14.70;99.90;;;;;;5062509;28;20226;-68
2021/09/01 02:28:19;;;;;;;9.82;5.07;;;14.60;99.90;;;;;;5063559;28;20237;-70
2021/09/01 02:30:45;;;;;;;11.63;5.68;;;14.60;99.90;;;;;;5067386;28;20216;-70
2021/09/01 02:33:11;;;;;;;9.30;5.53;;;14.60;99.90;;;;;;5049432;28;20873;-68
2021/09/01 02:35:36;;;;;;;10.00;5.22;;;14.60;99.90;;;;;;5066493;28;20205;-69
2021/09/01 02:38:04;;;;;;;8.38;5.18;;;14.60;99.90;;;;;;5067678;28;20237;-69
2021/09/01 02:40:29;;;;;;;11.13;5.18;;;14.60;99.90;;;;;;5067011;28;20174;-69
2021/09/01 02:42:55;;;;;;;7.97;4.82;;;14.60;99.90;;;;;;5066906;28;20197;-68
2021/09/01 02:45:21;;;;;;;6.38;4.38;;;14.50;99.90;;;;;;5066198;28;20193;-69
2021/09/01 02:47:47;;;;;;;8.68;5.22;;;14.50;99.90;;;;;;5066775;28;20259;-69
2021/09/01 02:50:14;;;;;;;8.38;5.07;;;14.40;99.90;;;;;;5067049;28;20208;-68
2021/09/01 02:52:43;;;;;;;9.57;5.10;;;14.50;99.90;;;;;;5066907;28;20625;-68
2021/09/01 02:55:10;;;;;;;7.82;5.53;;;14.50;99.90;;;;;;5066153;28;20212;-69
2021/09/01 02:57:35;;;;;;;12.27;6.13;;;14.50;99.90;;;;;;5066381;28;20276;-70
2021/09/01 03:00:03;;;;;;;11.30;6.63;;;14.40;99.90;;;;;;5066640;28;20264;-68
2021/09/01 03:02:28;;;;;;;10.90;6.32;;;14.40;99.90;;;;;;5066579;28;20184;-69
2021/09/01 03:04:54;;;;;;;9.48;5.80;;;14.30;99.90;;;;;;5065567;28;20209;-68
2021/09/01 03:07:19;;;;;;;10.95;6.43;;;14.40;99.90;;;;;;5066476;28;20308;-68
2021/09/01 03:09:45;;;;;;;7.25;5.38;;;14.30;99.90;;;;;;5066683;28;20190;-70
2021/09/01 03:12:11;;;;;;;9.20;6.22;;;14.40;99.90;;;;;;5066599;28;20186;-71
2021/09/01 03:14:36;;;;;;;10.63;5.13;;;14.40;99.90;;;;;;5066139;28;20732;-68
2021/09/01 03:17:02;;;;;;;9.98;5.30;;;14.30;99.90;;;;;;5065977;28;20696;-69
2021/09/01 03:19:28;;;;;;;8.80;5.43;;;14.40;99.90;;;;;;5066779;28;20181;-69
2021/09/01 03:21:53;;;;;;;10.02;5.28;;;14.30;99.90;;;;;;5066244;28;20181;-69
2021/09/01 03:24:19;;;;;;;9.25;5.18;;;14.30;99.90;;;;;;5065590;28;20189;-67
2021/09/01 03:26:45;;;;;;;6.40;4.57;;;14.30;99.90;;;;;;5066062;28;20211;-70
2021/09/01 03:29:10;;;;;;;7.00;4.72;;;14.30;99.90;;;;;;5066538;28;20269;-69
2021/09/01 03:31:36;;;;;;;8.43;5.40;;;14.30;99.90;;;;;;5066178;28;20186;-69
2021/09/01 03:34:02;;;;;;;6.75;4.47;;;14.30;99.90;;;;;;5065512;28;20189;-71
2021/09/01 03:36:27;;;;;;;8.13;4.95;;;14.20;99.90;;;;;;5066151;28;21176;-68
2021/09/01 03:38:53;;;;;;;10.45;5.10;;;14.20;99.90;;;;;;5066211;28;20222;-70
2021/09/01 03:41:19;;;;;;;13.05;5.55;;;14.20;99.90;;;;;;5065912;28;20652;-68
2021/09/01 03:43:44;;;;;;;8.20;4.85;;;14.20;99.90;;;;;;5065925;28;20188;-72
2021/09/01 03:46:10;;;;;;;8.88;5.18;;;14.20;99.90;;;;;;5065824;28;20204;-68
2021/09/01 03:48:36;;;;;;;7.63;5.18;;;14.20;99.90;;;;;;5065986;28;20235;-68
2021/09/01 03:51:01;;;;;;;13.93;5.28;;;14.10;99.90;;;;;;5065879;28;20174;-69
2021/09/01 03:53:27;;;;;;;9.43;5.63;;;14.20;99.90;;;;;;5066119;28;20174;-68
2021/09/01 03:55:53;;;;;;;11.52;5.70;;;14.20;99.90;;;;;;5065409;28;21336;-69
2021/09/01 03:58:19;;;;;;;8.63;6.18;;;14.10;99.90;;;;;;5048151;28;20174;-70
2021/09/01 04:00:44;;;;;;;11.23;5.70;;;14.20;99.90;;;;;;5065687;28;20192;-69
2021/09/01 04:03:10;;;;;;;10.18;5.32;;;14.10;99.90;;;;;;5046773;28;20182;-69
2021/09/01 04:05:36;;;;;;;8.70;5.28;;;14.20;99.90;;;;;;5065375;28;20260;-67
2021/09/01 04:08:02;;;;;;;8.00;5.15;;;14.20;99.90;;;;;;5065471;28;20292;-69
2021/09/01 04:10:28;;;;;;;10.65;5.30;;;14.20;99.90;;;;;;5065066;28;20659;-70
2021/09/01 04:12:54;;;;;;;10.02;5.60;;;14.20;99.90;;;;;;5047129;28;20182;-68
2021/09/01 04:15:19;;;;;;;9.45;5.80;;;14.20;99.90;;;;;;5064312;28;20198;-68
2021/09/01 04:17:45;;;;;;;7.15;5.68;;;14.10;99.90;;;;;;5065379;28;20177;-67
2021/09/01 04:20:11;;;;;;;8.43;5.68;;;14.10;99.90;;;;;;5065323;28;20525;-69
2021/09/01 04:22:37;;;;;;;8.90;5.85;;;14.10;99.90;;;;;;5065474;28;20227;-69
2021/09/01 04:25:04;;;;;;;7.57;5.28;;;14.10;99.90;;;;;;5064210;28;20604;-69
2021/09/01 04:27:30;;;;;;;8.32;5.03;;;14.10;99.90;;;;;;5065183;28;20592;-69
2021/09/01 04:29:55;;;;;;;10.45;5.68;;;14.10;99.90;;;;;;5065100;28;20228;-67
2021/09/01 04:32:21;;;;;;;12.18;5.53;;;14.10;99.90;;;;;;5047266;28;20589;-67
2021/09/01 04:34:47;;;;;;;15.55;5.50;;;14.10;99.90;;;;;;5064412;28;20201;-68
2021/09/01 04:37:12;;;;;;;8.02;5.18;;;14.10;99.90;;;;;;5065184;28;20629;-67
2021/09/01 04:39:38;;;;;;;11.43;5.93;;;14.10;99.90;;;;;;5064831;28;20630;-68
2021/09/01 04:42:04;;;;;;;8.43;4.97;;;14.00;99.90;;;;;;5064583;28;20185;-69
2021/09/01 04:44:32;;;;;;;11.20;5.18;;;14.00;99.90;;;;;;5064363;28;20198;-68
2021/09/01 04:46:58;;;;;;;8.80;5.72;;;14.00;99.90;;;;;;5064851;28;20194;-68
2021/09/01 04:49:24;;;;;;;12.18;5.78;;;14.00;99.90;;;;;;5064542;28;20174;-68
2021/09/01 04:51:49;;;;;;;9.70;5.65;;;14.00;99.90;;;;;;5064158;28;20247;-69
2021/09/01 04:54:15;;;;;;;9.48;5.88;;;14.00;99.90;;;;;;5063320;28;20660;-68
2021/09/01 04:56:41;;;;;;;12.52;5.53;;;14.00;99.90;;;;;;5064673;28;20189;-67
2021/09/01 04:59:06;;;;;;;10.00;5.38;;;13.90;99.90;;;;;;5046659;28;20227;-67
2021/09/01 05:01:32;;;;;;;11.50;5.60;;;13.90;99.90;;;;;;5064694;28;20182;-70
2021/09/01 05:03:57;;;;;;;8.55;5.55;;;13.90;99.90;;;;;;5045684;28;20181;-68
2021/09/01 05:06:26;;;;;;;8.82;6.10;;;13.90;99.90;;;;;;5063749;28;20201;-69
2021/09/01 05:08:52;;;;;;;12.07;6.45;;;13.90;99.90;;;;;;5064392;28;20300;-68
2021/09/01 05:11:18;;;;;;;7.53;5.22;;;13.90;99.90;;;;;;5064298;28;20643;-69
2021/09/01 05:13:44;;;;;;;7.82;5.72;;;14.00;99.90;;;;;;5063814;28;20185;-67
2021/09/01 05:16:10;;;;;;;9.07;6.05;;;14.00;99.90;;;;;;5063849;28;20201;-68
2021/09/01 05:18:36;;;;;;;9.20;5.10;;;14.00;99.90;;;;;;5046424;28;20181;-67
2021/09/01 05:21:05;;;;;;;11.50;5.80;;;14.00;99.90;;;;;;5046254;28;20192;-67
2021/09/01 05:23:35;;;;;;;9.20;5.85;;;14.00;99.90;;;;;;5064395;28;20683;-67
2021/09/01 05:26:03;;;;;;;9.73;5.60;;;14.00;99.90;;;;;;5063307;28;20560;-69
2021/09/01 05:28:31;;;;;;;16.00;5.93;;;14.10;99.90;;;;;;5062777;28;20217;-67
2021/09/01 05:31:03;;;;;;;11.73;6.70;;;14.20;99.90;;;;;;5062772;28;20173;-68
2021/09/01 05:33:35;;;;;;;14.48;6.25;;;14.20;99.90;;;;;;5063607;28;20224;-68
2021/09/01 05:36:00;;;;;;;9.05;6.03;;;14.30;99.90;;;;;;5063444;28;20279;-67
2021/09/01 05:38:26;;;;;;;9.30;5.70;;;14.20;99.90;;;;;;5063794;28;20217;-70
2021/09/01 05:40:53;;;;;;;7.18;5.18;;;14.30;99.90;;;;;;5045880;28;20249;-67
2021/09/01 05:43:21;;;;;;;9.80;5.65;;;14.30;99.90;;;;;;5063641;28;20643;-68
2021/09/01 05:45:48;;;;;;;11.75;6.07;;;14.30;99.90;;;;;;5062764;28;20288;-69
2021/09/01 05:48:18;;;;;;;11.65;5.32;;;14.30;99.90;;;;;;5063490;28;20683;-69
2021/09/01 05:50:44;;;;;;;7.68;5.32;;;14.40;99.90;;;;;;5063964;28;20204;-67
2021/09/01 05:53:10;;;;;;;6.90;5.38;;;14.40;99.90;;;;;;5063503;28;20178;-70
2021/09/01 05:55:41;;;;;;;12.35;5.45;;;14.40;99.90;;;;;;5062690;28;20201;-68
2021/09/01 05:58:10;;;;;;;7.13;4.55;;;14.50;99.90;;;;;;5063560;28;20934;-69
2021/09/01 06:00:39;;;;;;;10.32;5.43;;;14.50;99.90;;;;;;5063700;28;20640;-68
2021/09/01 06:03:10;;;;;;;12.63;5.25;;;14.60;99.90;;;;;;5046108;28;20300;-68
2021/09/01 06:05:38;;;;;;;9.10;5.25;;;14.60;99.90;;;;;;5066709;28;20208;-68
2021/09/01 06:08:06;;;;;;;7.32;5.63;;;14.50;99.90;;;;;;5067806;28;20201;-69
2021/09/01 06:10:34;;;;;;;10.75;5.78;;;14.60;99.90;;;;;;5067881;28;20650;-68
2021/09/01 06:13:10;;;;;;;7.05;5.55;;;14.60;99.90;;;;;;5049498;28;20174;-69
2021/09/01 06:15:40;;;;;;;8.45;5.22;;;14.70;99.90;;;;;;5066834;28;20550;-68
2021/09/01 06:18:07;;;;;;;8.82;5.10;;;14.60;99.90;;;;;;5068096;28;20667;-68
2021/09/01 06:20:34;;;;;;;7.72;5.78;;;14.60;99.90;;;;;;5067717;28;20185;-68
2021/09/01 06:23:01;;;;;;;6.22;4.32;;;14.70;99.90;;;;;;5067689;28;20174;-68
2021/09/01 06:25:27;;;;;;;9.88;5.22;;;14.70;99.90;;;;;;5065383;28;20549;-69
2021/09/01 06:27:53;;;;;;;8.43;4.47;;;14.70;99.90;;;;;;5067811;28;20244;-68
2021/09/01 06:30:19;;;;;;;11.05;4.55;;;14.80;99.90;;;;;;5067308;28;20587;-68
2021/09/01 06:32:44;;;;;;;7.35;4.47;;;14.80;99.90;;;;;;5067982;28;20208;-68
2021/09/01 06:35:12;;;;;;;6.85;4.03;;;14.90;99.90;;;;;;5066364;28;20225;-68
2021/09/01 06:37:39;;;;;;;14.50;3.95;;;15.00;99.90;;;;;;5066975;28;20188;-68
2021/09/01 06:40:06;;;;;;;9.25;4.40;;;15.00;99.90;;;;;;5067537;28;20173;-68
2021/09/01 06:42:32;;;;;;;6.30;4.25;;;14.90;99.90;;;;;;5049397;28;20583;-68
2021/09/01 06:44:58;;;;;;;7.32;4.40;;;14.90;99.90;;;;;;5048179;28;20209;-71
2021/09/01 06:47:23;;;;;;;7.93;4.50;;;15.00;99.90;;;;;;5066567;28;20209;-69
2021/09/01 06:49:49;;;;;;;8.32;4.47;;;15.00;99.90;;;;;;5066989;28;20248;-69
2021/09/01 06:52:15;;;;;;;5.38;3.72;;;15.10;99.90;;;;;;5066964;28;20173;-68
2021/09/01 06:54:40;;;;;;;6.03;4.07;;;15.20;99.90;;;;;;5065795;28;20225;-71
2021/09/01 06:57:06;;;;;;;8.32;4.40;;;15.20;99.90;;;;;;5048743;28;20240;-67
2021/09/01 06:59:31;;;;;;;7.38;4.47;;;15.20;99.90;;;;;;5067125;28;20227;-69
2021/09/01 07:01:57;;;;;;;11.10;5.28;;;15.20;99.90;;;;;;5066809;28;20177;-68
2021/09/01 07:04:23;;;;;;;7.75;4.43;;;15.40;99.90;;;;;;5066181;28;20664;-68
2021/09/01 07:06:48;;;;;;;6.15;4.13;;;15.40;99.90;;;;;;5066735;28;20204;-69
2021/09/01 07:09:14;;;;;;;6.95;4.45;;;15.50;99.90;;;;;;5067451;28;20261;-68
2021/09/01 07:11:39;;;;;;;6.38;3.95;;;15.60;99.90;;;;;;5067182;28;20204;-68
2021/09/01 07:14:06;;;;;;;4.78;4.07;;;15.60;99.90;;;;;;5047539;28;20177;-68
2021/09/01 07:16:32;;;;;;;9.82;4.88;;;15.50;99.90;;;;;;5066264;28;20173;-70
2021/09/01 07:18:58;;;;;;;17.70;7.25;;;15.60;99.90;;;;;;5066975;28;20272;-67
2021/09/01 07:21:24;;;;;;;7.82;4.18;;;15.60;99.90;;;;;;5066514;28;20260;-70
2021/09/01 07:23:50;;;;;;;7.60;4.10;;;15.70;99.90;;;;;;5065635;28;20173;-67
2021/09/01 07:26:15;;;;;;;6.72;4.10;;;15.70;99.90;;;;;;5065525;28;20197;-68
2021/09/01 07:28:41;;;;;;;7.55;4.20;;;15.70;99.90;;;;;;5066323;28;20225;-68
2021/09/01 07:31:08;;;;;;;5.25;3.85;;;15.70;99.90;;;;;;5066183;28;20220;-68
2021/09/01 07:33:34;;;;;;;6.47;3.50;;;15.70;99.90;;;;;;5066223;28;20177;-68
2021/09/01 07:36:01;;;;;;;7.85;3.45;;;15.70;99.90;;;;;;5047610;28;20248;-68
2021/09/01 07:38:26;;;;;;;6.05;3.88;;;15.80;99.90;;;;;;5065672;28;21010;-68
2021/09/01 07:40:53;;;;;;;8.20;3.72;;;15.80;99.90;;;;;;5065948;28;20268;-68
2021/09/01 07:43:19;;;;;;;9.10;4.07;;;15.90;99.90;;;;;;5066097;28;20173;-67
2021/09/01 07:45:46;;;;;;;7.70;4.55;;;16.00;99.90;;;;;;5065058;28;20810;-71
2021/09/01 07:48:14;;;;;;;6.80;4.35;;;16.00;99.90;;;;;;5065646;28;20284;-68
2021/09/01 07:50:40;;;;;;;6.05;4.07;;;16.10;99.90;;;;;;5065982;28;20624;-69
2021/09/01 07:53:06;;;;;;;6.78;4.40;;;16.10;99.90;;;;;;5065618;28;20287;-67
2021/09/01 07:55:32;;;;;;;9.57;4.10;;;16.20;99.90;;;;;;5064876;28;20704;-68
2021/09/01 07:57:57;;;;;;;6.30;4.50;;;16.20;99.90;;;;;;5065178;28;20186;-71
2021/09/01 08:00:23;;;;;;;11.27;4.68;;;16.40;99.90;;;;;;5065989;28;20230;-67
2021/09/01 08:02:51;;;;;;;6.53;3.95;;;16.40;99.90;;;;;;5065211;28;20264;-68
2021/09/01 08:05:17;;;;;;;6.95;3.28;;;16.50;99.90;;;;;;5046651;28;20205;-69
2021/09/01 08:07:42;;;;;;;9.13;4.10;;;16.60;99.90;;;;;;5065210;28;20205;-68
2021/09/01 08:10:08;;;;;;;8.52;3.90;;;16.70;99.90;;;;;;5064922;28;20190;-67
2021/09/01 08:12:34;;;;;;;7.60;4.45;;;16.80;99.90;;;;;;5065642;28;20174;-67
2021/09/01 08:15:00;;;;;;;6.30;3.92;;;17.00;99.90;;;;;;5062411;28;20225;-67
2021/09/01 08:17:25;;;;;;;10.55;4.38;;;17.20;99.90;;;;;;5047054;28;20178;-66
2021/09/01 08:19:51;;;;;;;5.80;3.97;;;17.20;99.90;;;;;;5064935;28;20209;-65
2021/09/01 08:22:17;;;;;;;9.23;4.38;;;17.40;99.90;;;;;;5065736;28;20272;-66
2021/09/01 08:24:43;;;;;;;9.32;3.97;;;17.60;99.90;;;;;;5063866;28;20698;-68
2021/09/01 08:27:10;;;;;;;6.45;3.75;;;17.70;99.90;;;;;;5064201;28;20205;-66
2021/09/01 08:29:37;;;;;;;4.60;3.63;;;17.70;99.90;;;;;;5065305;28;20213;-67
2021/09/01 08:32:04;;;;;;;6.20;3.40;;;17.80;99.90;;;;;;5064713;28;20165;-65
2021/09/01 08:34:30;;;;;;;8.38;4.00;;;17.80;99.90;;;;;;5064289;28;20201;-67
2021/09/01 08:36:56;;;;;;;5.93;3.15;;;17.80;99.90;;;;;;5064962;28;20185;-66
2021/09/01 08:39:22;;;;;;;5.63;3.55;;;17.80;99.90;;;;;;5064180;28;20645;-66
2021/09/01 08:41:48;;;;;;;6.05;3.55;;;17.80;99.90;;;;;;5064629;28;20192;-67
2021/09/01 08:44:15;;;;;;;6.60;3.35;;;18.00;99.90;;;;;;5045774;28;20264;-67
2021/09/01 08:46:43;;;;;;;6.03;3.65;;;18.00;99.90;;;;;;5064907;28;20182;-67
2021/09/01 08:49:11;;;;;;;6.22;3.45;;;18.10;99.90;;;;;;5064910;28;20177;-68
2021/09/01 08:51:37;;;;;;;7.15;3.97;;;18.00;99.90;;;;;;5064734;28;20173;-66
2021/09/01 08:54:04;;;;;;;8.52;3.80;;;18.00;99.90;;;;;;5063386;28;20210;-65
2021/09/01 08:56:30;;;;;;;8.07;3.83;;;18.10;99.90;;;;;;5064730;28;20194;-66
2021/09/01 08:58:56;;;;;;;10.50;3.78;;;18.00;99.90;;;;;;5064410;28;20181;-69
2021/09/01 09:02:01;;;;;;;9.02;4.53;;;17.90;99.90;;;;;;5064631;28;20214;-66
2021/09/01 09:04:29;;;;;;;4.10;2.80;;;18.00;99.90;;;;;;4982278;28;20200;-65
2021/09/01 09:06:58;;;;;;;5.28;3.13;;;18.20;99.90;;;;;;4982896;28;20251;-67
2021/09/01 09:09:27;;;;;;;4.18;3.20;;;18.30;99.90;;;;;;5023501;28;20192;-67
2021/09/01 09:11:54;;;;;;;5.43;2.75;;;18.50;99.90;;;;;;5063965;28;20208;-67
2021/09/01 09:14:37;;;;;;;7.45;3.33;;;18.50;99.90;;;;;;5063511;28;20192;-68
2021/09/01 09:17:08;;;;;;;3.75;2.78;;;18.70;99.90;;;;;;5063773;28;20177;-67
2021/09/01 09:19:50;;;;;;;7.60;2.88;;;18.90;99.90;;;;;;5062439;28;20241;-67
2021/09/01 09:22:31;;;;;;;4.88;3.05;;;18.90;99.90;;;;;;5064626;28;20186;-66
2021/09/01 09:25:10;;;;;;;7.57;3.20;;;19.10;99.90;;;;;;5063894;28;20255;-67
2021/09/01 09:27:45;;;;;;;7.45;3.22;;;19.20;99.90;;;;;;5064459;28;20612;-66
2021/09/01 09:30:41;;;;;;;6.38;2.92;;;19.30;99.90;;;;;;5064119;28;20236;-67
2021/09/01 09:33:24;;;;;;;6.32;3.25;;;19.50;99.90;;;;;;5057336;28;20284;-67
2021/09/01 09:35:59;;;;;;;6.45;3.15;;;19.80;99.90;;;;;;5063269;28;20553;-68
2021/09/01 09:38:38;;;;;;;7.18;3.33;;;19.70;99.90;;;;;;5063888;28;20181;-68
2021/09/01 09:41:07;;;;;;;6.15;3.38;;;19.60;99.90;;;;;;5064093;28;20260;-67
2021/09/01 09:43:34;;;;;;;4.28;3.25;;;19.70;99.90;;;;;;5045885;28;20205;-68
2021/09/01 09:46:03;;;;;;;6.13;3.72;;;19.50;99.90;;;;;;5063592;28;20209;-66
2021/09/01 09:48:31;;;;;;;7.63;3.42;;;19.60;99.90;;;;;;5063929;28;20245;-67
2021/09/01 09:50:57;;;;;;;5.68;3.88;;;19.90;99.90;;;;;;5063750;28;20173;-66
2021/09/01 09:53:33;;;;;;;6.80;3.20;;;20.20;99.90;;;;;;5063106;28;20694;-67
2021/09/01 09:56:06;;;;;;;6.68;3.30;;;20.20;99.90;;;;;;5062766;28;20229;-67
2021/09/01 09:58:47;;;;;;;5.22;3.03;;;20.40;99.90;;;;;;5063560;28;20291;-66
2021/09/01 10:01:16;;;;;;;6.03;2.95;;;20.20;99.90;;;;;;5063810;28;20312;-67
2021/09/01 10:03:42;;;;;;;6.05;3.25;;;20.50;99.90;;;;;;5063541;28;20278;-68
2021/09/01 10:06:09;;;;;;;5.07;3.47;;;20.60;99.90;;;;;;5063684;28;20551;-68
2021/09/01 10:08:37;;;;;;;4.88;3.03;;;20.50;99.90;;;;;;5063740;28;20605;-67
2021/09/01 10:11:11;;;;;;;5.57;3.08;;;20.60;99.90;;;;;;5062656;28;20220;-67
2021/09/01 10:13:42;;;;;;;7.45;3.38;;;20.70;99.90;;;;;;5062279;28;20169;-66
2021/09/01 10:16:20;;;;;;;6.97;4.43;;;20.90;99.90;;;;;;5062989;28;20189;-65
2021/09/01 10:19:27;;;;;;;5.90;3.45;;;20.80;99.90;;;;;;5063204;28;20188;-68
2021/09/01 10:22:01;;;;;;;4.90;3.13;;;20.80;99.90;;;;;;5062942;28;20602;-67
2021/09/01 10:24:30;;;;;;;6.07;3.80;;;20.90;99.90;;;;;;5063179;28;20192;-67
2021/09/01 10:27:23;;;;;;;5.45;3.25;;;20.70;99.90;;;;;;5063922;28;20272;-67
2021/09/01 10:29:53;;;;;;;5.22;3.85;;;20.50;99.90;;;;;;5057486;28;20261;-67
2021/09/01 10:32:25;;;;;;;7.38;3.83;;;20.70;99.90;;;;;;5063634;28;20173;-66
2021/09/01 10:35:12;;;;;;;5.90;4.07;;;20.60;99.90;;;;;;5062081;28;20186;-67
2021/09/01 10:37:54;;;;;;;7.63;4.68;;;20.50;99.90;;;;;;5063100;28;20185;-68
2021/09/01 10:40:23;;;;;;;5.97;3.45;;;20.50;99.90;;;;;;5062662;28;20260;-68
2021/09/01 10:42:53;;;;;;;5.63;3.88;;;20.50;99.90;;;;;;5063504;28;20173;-67
2021/09/01 10:45:22;;;;;;;6.47;3.35;;;20.20;99.90;;;;;;5062532;28;20518;-67
2021/09/01 10:47:50;;;;;;;5.65;4.07;;;20.50;99.90;;;;;;5062962;28;20355;-66
2021/09/01 10:50:33;;;;;;;6.28;3.63;;;20.50;99.90;;;;;;5064385;28;20224;-66
2021/09/01 10:53:07;;;;;;;10.18;3.80;;;20.90;99.90;;;;;;5066959;28;20181;-65
2021/09/01 10:55:47;;;;;;;9.65;3.72;;;21.30;99.90;;;;;;5065626;28;20194;-66
2021/09/01 10:58:39;;;;;;;6.93;3.30;;;21.30;99.90;;;;;;5066985;28;20182;-67
2021/09/01 11:01:07;;;;;;;6.18;4.25;;;21.30;99.90;;;;;;5063501;28;20185;-66
2021/09/01 11:03:36;;;;;;;5.68;4.03;;;21.40;99.90;;;;;;5067163;28;20645;-66
2021/09/01 11:06:22;;;;;;;7.32;3.80;;;21.40;99.90;;;;;;5065816;28;20198;-68
2021/09/01 11:09:14;;;;;;;6.63;3.50;;;21.30;99.90;;;;;;5066137;28;21177;-68
2021/09/01 11:11:49;;;;;;;5.10;3.53;;;21.10;99.90;;;;;;5063061;28;21243;-67
2021/09/01 11:14:36;;;;;;;6.68;3.55;;;21.00;99.90;;;;;;5064530;28;20188;-67
2021/09/01 11:17:05;;;;;;;8.85;4.18;;;21.20;99.90;;;;;;5065953;28;20185;-66
2021/09/01 11:19:30;;;;;;;6.53;3.45;;;21.00;99.90;;;;;;5065448;28;20182;-66
2021/09/01 11:21:59;;;;;;;5.47;3.42;;;21.10;99.90;;;;;;5066292;28;20644;-67
2021/09/01 11:24:25;;;;;;;4.30;3.35;;;21.50;99.90;;;;;;5065833;28;20201;-68
2021/09/01 11:26:56;;;;;;;6.68;3.53;;;21.70;99.90;;;;;;5066668;28;20178;-68
2021/09/01 11:29:34;;;;;;;8.25;4.10;;;21.90;99.90;;;;;;5066421;28;20483;-67
2021/09/01 11:32:00;;;;;;;4.68;3.20;;;21.60;99.90;;;;;;5066161;28;20970;-67
2021/09/01 11:34:26;;;;;;;5.47;3.47;;;21.60;99.90;;;;;;5065276;28;20717;-66
2021/09/01 11:36:52;;;;;;;5.82;3.70;;;21.60;99.90;;;;;;5066160;28;20200;-67
2021/09/01 11:39:18;;;;;;;8.27;3.83;;;21.60;99.90;;;;;;5066189;28;20220;-67
2021/09/01 11:41:47;;;;;;;5.05;3.65;;;21.20;99.90;;;;;;5066218;28;20192;-67
2021/09/01 11:44:14;;;;;;;8.13;3.85;;;21.10;99.90;;;;;;5064447;28;20628;-67
2021/09/01 11:49:13;;;;;;;7.00;4.15;;;20.80;99.90;;;;;;5011852;28;20210;-78
2021/09/01 11:51:41;;;;;;;6.18;4.55;;;20.80;99.90;;;;;;5007708;28;20267;-79
2021/09/01 11:54:08;;;;;;;7.88;4.65;;;20.80;99.90;;;;;;5002613;28;20211;-81
2021/09/01 11:56:34;;;;;;;6.43;4.00;;;21.00;99.90;;;;;;5005373;28;20229;-78
2021/09/01 11:59:06;;;;;;;7.05;4.22;;;21.30;99.90;;;;;;5010961;28;20199;-79
2021/09/01 12:01:51;;;;;;;6.85;4.30;;;21.30;99.90;;;;;;5014900;28;20457;-81
2021/09/01 12:04:18;;;;;;;8.68;4.93;;;21.30;99.90;;;;;;5014853;28;20183;-81
2021/09/01 12:06:50;;;;;;;5.47;4.57;;;21.60;99.90;;;;;;5004393;28;20245;-79
2021/09/01 12:09:17;;;;;;;8.20;4.85;;;21.70;99.90;;;;;;5023002;28;20230;-80
2021/09/01 12:11:57;;;;;;;8.63;5.10;;;21.80;99.90;;;;;;5004536;28;20439;-80
2021/09/01 12:14:28;;;;;;;7.13;5.20;;;21.60;99.90;;;;;;5005998;28;20193;-78
2021/09/01 12:17:13;;;;;;;6.82;4.78;;;21.60;99.90;;;;;;5006099;28;20591;-81
2021/09/01 12:19:48;;;;;;;8.80;5.15;;;21.60;99.90;;;;;;5003490;28;20635;-81
2021/09/01 12:22:40;;;;;;;11.40;7.75;;;21.70;99.90;;;;;;5013170;28;20201;-81
2021/09/01 12:25:09;;;;;;;6.80;4.40;;;21.90;99.90;;;;;;5014953;28;20359;-81
2021/09/01 12:27:36;;;;;;;10.50;6.93;;;22.00;99.90;;;;;;5003871;28;20207;-81
2021/09/01 12:30:10;;;;;;;7.57;4.72;;;22.20;99.90;;;;;;5020163;28;20199;-81
2021/09/01 12:32:36;;;;;;;8.95;5.65;;;22.20;99.90;;;;;;5016179;28;20184;-78
2021/09/01 12:35:06;;;;;;;6.35;4.82;;;22.00;99.90;;;;;;5011749;28;20191;-80
2021/09/01 12:37:34;;;;;;;5.85;4.45;;;22.10;99.90;;;;;;5017798;28;20669;-81
2021/09/01 12:40:03;;;;;;;6.63;4.65;;;21.90;99.90;;;;;;5014446;28;20213;-81
2021/09/01 12:42:36;;;;;;;6.38;4.72;;;21.90;99.90;;;;;;5023625;28;20464;-78
2021/09/01 12:45:21;;;;;;;5.93;4.50;;;22.00;99.90;;;;;;5020290;28;20401;-81
2021/09/01 12:47:59;;;;;;;9.45;4.72;;;22.10;99.90;;;;;;5005669;28;20592;-81
2021/09/01 12:50:41;;;;;;;6.82;5.10;;;22.10;99.90;;;;;;5009719;28;20341;-81
2021/09/01 12:53:12;;;;;;;9.43;4.45;;;22.00;99.90;;;;;;5003650;28;20183;-82
2021/09/01 12:55:45;;;;;;;7.18;4.25;;;21.90;99.90;;;;;;5003683;28;20227;-81